Main page
METAR-TAF:

METAR-TAF

Airports :

Coeur d'Alene Airport

Coeur d'Alene, Idaho, United States

latitude: 47-46N, longitude: 116-49W, elevation: 2319 ft

Current weather observation

The report was made 33 minutes ago, at 18:56 UTC
Wind 6 mph from variable directions
Temperature 64°F
Humidity 45%
Pressure 30.11 in. Hg
Visibility: 10 miles
Clear sky

METAR: KCOE 191856Z AUTO VRB05KT 10SM CLR 18/06 A3011 RMK AO2 SLP211 T01780061 PNO $

Time: 12:29 (19:29 UTC)

Forecast

The report was made 1 hour and 58 minutes ago, at 17:31 UTC
Forecast valid from 19 at 18 UTC to 20 at 18 UTC
Wind 6 mph from the North/Northeast
Visibility: 6 miles
Few clouds at a height of 6000 ft

TAF: KCOE 191731Z 1918/2018 03005KT P6SM FEW060

Weather observations and forecasts of more than 4000 airports (METAR and TAF reports).

The available stations are represented by yellow and red dots on the map.

Hover mouse over dot to see the name of the station.

Then click to see weather observations and forecasts.

To change the map : click on the green buttons with a black cross to zoom in, on the green button with a dash to zoom out, or on the green arrows for adjacent maps.


METAR-TAF: